Terminal Aerodrome Forecast
Issued by NWS Grand Forks, ND

Home | Current Version | Previous Version | Graphics & Text | Print | Product List | Glossary On
Versions: 1 2 3 4 5 6 7 8 9 10 11 12 13 14 15 16 17 18
000
FTUS43 KFGF 171120
TAFFAR
TAF
KFAR 171120Z 1712/1812 25007KT P6SM SCT150
     FM171500 30008KT P6SM SCT150
     FM171800 30012G20KT P6SM FEW250
     FM172300 28009KT P6SM FEW250
     FM180900 10004KT P6SM -SN BKN060
     FM181100 09009KT 4SM -SN OVC035=

USA.gov is the U.S. government's official web portal to all federal, state and local government web resources and services.